createdAt,value
2017-10-21T00:03:02.148Z,14.33
2017-10-21T00:08:30.317Z,10.07
2017-10-21T00:13:58.507Z,11.73
2017-10-21T00:19:26.685Z,11.87
2017-10-21T00:24:54.848Z,12.90
2017-10-21T00:30:23.001Z,8.50
2017-10-21T00:35:59.285Z,12.33
2017-10-21T00:41:27.510Z,19.90
2017-10-21T00:46:56.111Z,9.77
2017-10-21T00:52:24.283Z,13.93
2017-10-21T00:57:52.449Z,10.17
2017-10-21T01:03:21.515Z,9.27
2017-10-21T01:08:49.676Z,9.87
2017-10-21T01:14:17.843Z,20.27
2017-10-21T01:19:45.987Z,13.83
2017-10-21T01:25:14.123Z,12.00
2017-10-21T01:30:43.048Z,13.10
2017-10-21T01:36:11.384Z,12.20
2017-10-21T01:41:39.548Z,13.10
2017-10-21T01:47:07.710Z,14.60
2017-10-21T01:52:35.957Z,12.47
2017-10-21T01:58:04.214Z,14.77
2017-10-21T02:03:32.469Z,11.20
2017-10-21T02:09:00.747Z,8.20
2017-10-21T02:14:29.025Z,9.33
2017-10-21T02:19:57.247Z,11.73
2017-10-21T02:25:25.404Z,8.80
2017-10-21T02:30:53.540Z,11.60
2017-10-21T02:36:21.720Z,10.93
2017-10-21T02:41:55.332Z,8.63
2017-10-21T02:47:23.475Z,8.50
2017-10-21T02:52:51.637Z,9.43
2017-10-21T02:58:19.801Z,11.73
2017-10-21T03:03:47.948Z,9.27
2017-10-21T03:09:16.090Z,11.30
2017-10-21T03:14:44.247Z,10.73
2017-10-21T03:20:12.387Z,9.50
2017-10-21T03:25:40.562Z,15.30
2017-10-21T03:31:08.703Z,9.33
2017-10-21T03:36:36.851Z,8.03
2017-10-21T03:42:05.029Z,12.80
2017-10-21T03:47:33.231Z,11.07
2017-10-21T03:53:01.427Z,11.50
2017-10-21T03:58:29.578Z,12.40
2017-10-21T04:03:58.500Z,10.90
2017-10-21T04:09:26.661Z,11.17
2017-10-21T04:14:54.838Z,12.23
2017-10-21T04:20:23.006Z,11.73
2017-10-21T04:25:51.158Z,10.20
2017-10-21T04:31:19.312Z,8.80
2017-10-21T04:36:49.424Z,12.17
2017-10-21T04:42:17.639Z,10.50
2017-10-21T04:47:45.844Z,10.60
2017-10-21T04:53:14.012Z,11.10
2017-10-21T04:58:42.412Z,11.27
2017-10-21T05:04:11.540Z,15.33
2017-10-21T05:09:39.695Z,15.83
2017-10-21T05:15:07.857Z,13.03
2017-10-21T05:20:36.025Z,15.70
2017-10-21T05:26:04.194Z,14.67
2017-10-21T05:31:32.375Z,15.57
2017-10-21T05:37:00.537Z,14.03
2017-10-21T05:42:28.717Z,13.30
2017-10-21T05:47:56.883Z,17.27
2017-10-21T05:53:25.045Z,17.00
2017-10-21T05:58:53.189Z,12.83
2017-10-21T06:04:21.409Z,15.67
2017-10-21T06:09:49.558Z,13.90
2017-10-21T06:15:18.475Z,14.20
2017-10-21T06:20:46.627Z,16.13
2017-10-21T06:26:14.774Z,12.97
2017-10-21T06:31:43.697Z,16.30
2017-10-21T06:37:11.870Z,14.90
2017-10-21T06:42:40.028Z,23.20
2017-10-21T06:48:08.181Z,16.50
2017-10-21T06:53:37.331Z,19.43
2017-10-21T06:59:05.494Z,25.03
2017-10-21T07:04:33.666Z,19.50
2017-10-21T07:10:02.773Z,15.77
2017-10-21T07:15:31.707Z,20.60
2017-10-21T07:21:01.864Z,19.60
2017-10-21T07:26:31.174Z,18.83
2017-10-21T07:31:59.335Z,17.20
2017-10-21T07:37:27.530Z,13.83
2017-10-21T07:42:55.673Z,18.37
2017-10-21T07:48:23.834Z,21.50
2017-10-21T07:53:52.100Z,19.60
2017-10-21T07:59:21.190Z,19.77
2017-10-21T08:04:49.355Z,21.47
2017-10-21T08:10:17.501Z,19.80
2017-10-21T08:15:45.667Z,15.57
2017-10-21T08:21:13.827Z,16.03
2017-10-21T08:26:43.958Z,17.23
2017-10-21T08:32:12.139Z,15.27
2017-10-21T08:37:41.123Z,13.80
2017-10-21T08:43:09.315Z,13.73
2017-10-21T08:48:37.502Z,14.10
2017-10-21T09:02:53.030Z,13.27
2017-10-21T09:08:21.190Z,15.87
2017-10-21T09:13:49.340Z,14.20
2017-10-21T09:19:17.474Z,11.37
2017-10-21T09:24:46.389Z,14.13
2017-10-21T09:30:16.513Z,11.33
2017-10-21T09:35:44.660Z,13.53
2017-10-21T09:41:12.803Z,16.77
2017-10-21T09:46:41.116Z,15.53
2017-10-21T09:52:10.033Z,14.27
2017-10-21T09:57:38.190Z,16.60
2017-10-21T10:03:06.360Z,14.93
2017-10-21T10:08:34.499Z,17.90
2017-10-21T10:14:02.686Z,13.27
2017-10-21T10:19:30.866Z,14.30
2017-10-21T10:24:59.827Z,13.63
2017-10-21T10:30:28.011Z,13.33
2017-10-21T10:36:06.107Z,15.30
2017-10-21T10:41:34.596Z,17.73
2017-10-21T10:47:03.645Z,16.77
2017-10-21T10:52:49.621Z,14.37
2017-10-21T10:58:18.557Z,11.73
2017-10-21T11:03:46.813Z,15.07
2017-10-21T11:09:14.952Z,11.70
2017-10-21T11:14:43.215Z,14.70
2017-10-21T11:20:11.633Z,17.87
2017-10-21T11:25:42.530Z,12.83
2017-10-21T11:31:10.685Z,12.97
2017-10-21T11:36:38.840Z,12.67
2017-10-21T11:42:07.023Z,17.97
2017-10-21T11:47:35.941Z,13.87
2017-10-21T11:53:35.447Z,10.23
2017-10-21T11:59:03.847Z,15.23
2017-10-21T12:04:32.023Z,11.03
2017-10-21T12:10:00.992Z,15.87
2017-10-21T12:15:29.961Z,12.77
2017-10-21T12:20:59.029Z,9.60
2017-10-21T12:26:29.451Z,9.30
2017-10-21T12:31:57.765Z,14.37
2017-10-21T12:37:25.979Z,8.20
2017-10-21T12:42:54.169Z,10.93
2017-10-21T12:48:22.325Z,14.40
2017-10-21T12:53:51.443Z,10.23
2017-10-21T12:59:19.602Z,11.10
2017-10-21T13:04:48.295Z,11.53
2017-10-21T13:10:17.890Z,8.50
2017-10-21T13:15:46.110Z,7.53
2017-10-21T13:21:14.269Z,8.93
2017-10-21T13:26:43.445Z,12.43
2017-10-21T13:32:13.143Z,6.90
2017-10-21T13:37:41.292Z,6.50
2017-10-21T13:43:09.444Z,7.50
2017-10-21T13:48:42.555Z,6.67
2017-10-21T13:54:10.768Z,10.20
2017-10-21T13:59:38.920Z,9.63
2017-10-21T14:05:07.369Z,7.20
2017-10-21T14:10:50.530Z,6.03
2017-10-21T14:16:20.173Z,5.40
2017-10-21T14:21:49.432Z,5.97
2017-10-21T14:27:18.377Z,8.30
2017-10-21T14:32:46.842Z,6.23
2017-10-21T14:38:15.065Z,6.13
2017-10-21T14:43:47.847Z,6.33
2017-10-21T14:49:16.943Z,7.87
2017-10-21T14:54:45.225Z,5.87
2017-10-21T15:00:14.393Z,5.47
2017-10-21T15:05:54.817Z,4.13
2017-10-21T15:11:23.015Z,6.17
2017-10-21T15:16:52.064Z,4.60
2017-10-21T15:22:20.205Z,7.90
2017-10-21T15:27:48.347Z,8.83
2017-10-21T15:33:16.479Z,8.10
2017-10-21T15:38:47.362Z,11.80
2017-10-21T15:44:15.680Z,9.50
2017-10-21T15:49:44.900Z,10.53
2017-10-21T15:55:13.064Z,8.30
2017-10-21T16:00:41.242Z,6.97
2017-10-21T16:06:09.935Z,7.30
2017-10-21T16:11:39.039Z,7.97
2017-10-21T16:17:07.205Z,14.73
2017-10-21T16:22:35.385Z,10.97
2017-10-21T16:28:08.664Z,10.00
2017-10-21T16:33:37.652Z,13.03
2017-10-21T16:39:05.824Z,14.83
2017-10-21T16:44:34.132Z,11.67
2017-10-21T16:50:02.464Z,14.37
2017-10-21T16:55:30.751Z,11.13
2017-10-21T17:00:59.201Z,20.20
2017-10-21T17:06:28.947Z,13.70
2017-10-21T17:11:59.181Z,15.80
2017-10-21T17:17:27.522Z,21.30
2017-10-21T17:22:56.837Z,25.33
2017-10-21T17:28:25.375Z,25.67
2017-10-21T17:33:53.571Z,17.80
2017-10-21T17:39:21.708Z,21.87
2017-10-21T17:44:49.899Z,21.23
2017-10-21T17:50:18.121Z,15.20
2017-10-21T17:55:46.264Z,14.00
2017-10-21T18:01:14.603Z,15.10
2017-10-21T18:06:48.990Z,15.07
2017-10-21T18:12:17.918Z,17.83
2017-10-21T18:17:46.344Z,13.93
2017-10-21T18:23:14.704Z,19.33
2017-10-21T18:28:43.419Z,25.73
2017-10-21T18:34:11.567Z,23.43
2017-10-21T18:39:39.734Z,21.60
2017-10-21T18:45:07.931Z,23.43
2017-10-21T18:50:36.145Z,27.97
2017-10-21T18:56:04.325Z,22.13
2017-10-21T19:01:32.514Z,29.67
2017-10-21T19:07:00.822Z,28.20
2017-10-21T19:12:29.040Z,20.53
2017-10-21T19:17:57.224Z,21.77
2017-10-21T19:23:25.393Z,15.80
2017-10-21T19:28:53.640Z,15.37
2017-10-21T19:34:21.811Z,18.30
2017-10-21T19:39:56.440Z,14.30
2017-10-21T19:45:25.411Z,18.30
2017-10-21T19:50:53.560Z,15.87
2017-10-21T19:56:21.713Z,19.50
2017-10-21T20:01:49.966Z,18.20
2017-10-21T20:07:18.124Z,16.93
2017-10-21T20:12:46.300Z,17.60
2017-10-21T20:18:16.401Z,18.87
2017-10-21T20:23:44.539Z,16.57
2017-10-21T20:29:12.675Z,18.97
2017-10-21T20:34:40.915Z,17.77
2017-10-21T20:40:09.073Z,14.70
2017-10-21T20:45:37.230Z,18.50
2017-10-21T20:51:06.192Z,21.80
2017-10-21T20:56:35.131Z,18.50
2017-10-21T21:02:03.343Z,15.97
2017-10-21T21:07:31.653Z,18.50
2017-10-21T21:12:59.858Z,20.33
2017-10-21T21:18:28.073Z,31.33
2017-10-21T21:23:56.243Z,23.03
2017-10-21T21:29:24.424Z,17.20
2017-10-21T21:34:53.402Z,18.23
2017-10-21T21:40:21.594Z,21.37
2017-10-21T21:45:49.742Z,21.50
2017-10-21T21:51:17.908Z,18.33
2017-10-21T21:56:46.103Z,10.67
2017-10-21T22:02:14.316Z,14.20
2017-10-21T22:07:42.496Z,6.90
2017-10-21T22:13:10.674Z,3.43
2017-10-21T22:18:38.807Z,4.33
2017-10-21T22:24:06.940Z,2.57
2017-10-21T22:29:35.120Z,3.43
2017-10-21T22:35:03.259Z,8.83
2017-10-21T22:40:33.425Z,4.40
2017-10-21T22:46:01.577Z,2.90
2017-10-21T22:51:29.719Z,2.47
2017-10-21T22:56:57.889Z,2.10
2017-10-21T23:02:26.037Z,1.70
2017-10-21T23:07:54.176Z,2.33
2017-10-21T23:13:22.312Z,2.43
2017-10-21T23:18:50.447Z,4.83
2017-10-21T23:24:19.355Z,3.90
2017-10-21T23:29:47.487Z,2.53
2017-10-21T23:35:16.397Z,2.80
2017-10-21T23:40:44.539Z,2.23
2017-10-21T23:46:12.683Z,7.07
2017-10-21T23:51:40.838Z,2.40
2017-10-21T23:57:09.746Z,4.20
